createdAt,value
2019-04-06T00:00:05.197Z,97859.94
2019-04-06T00:02:37.023Z,97859.36
2019-04-06T00:05:06.606Z,97858.89
2019-04-06T00:07:37.195Z,97857.61
2019-04-06T00:10:06.332Z,97848.39
2019-04-06T00:12:35.595Z,97848.22
2019-04-06T00:15:04.863Z,97843.46
2019-04-06T00:17:34.262Z,97846.84
2019-04-06T00:20:03.543Z,97838.69
2019-04-06T00:22:37.352Z,97832.88
2019-04-06T00:25:06.717Z,97831.55
2019-04-06T00:27:37.240Z,97832.80
2019-04-06T00:30:07.312Z,97832.94
2019-04-06T00:32:41.209Z,97829.96
2019-04-06T00:35:10.459Z,97832.97
2019-04-06T00:37:40.872Z,97843.22
2019-04-06T00:40:12.095Z,97837.13
2019-04-06T00:42:41.177Z,97841.95
2019-04-06T00:45:10.294Z,97839.77
2019-04-06T00:47:41.805Z,97842.41
2019-04-06T00:50:12.756Z,97850.33
2019-04-06T00:52:42.263Z,97846.33
2019-04-06T00:55:11.299Z,97845.66
2019-04-06T00:57:41.831Z,97839.48
2019-04-06T01:00:12.875Z,97840.19
2019-04-06T01:02:42.062Z,97851.03
2019-04-06T01:05:11.300Z,97844.05
2019-04-06T01:07:40.418Z,97845.03
2019-04-06T01:10:10.993Z,97846.58
2019-04-06T01:12:40.200Z,97843.88
2019-04-06T01:15:09.436Z,97853.53
2019-04-06T01:17:38.509Z,97855.17
2019-04-06T01:20:07.651Z,97856.63
2019-04-06T01:22:36.701Z,97854.47
2019-04-06T01:25:07.488Z,97854.72
2019-04-06T01:27:36.630Z,97854.64
2019-04-06T01:30:06.591Z,97857.42
2019-04-06T01:32:35.676Z,97859.98
2019-04-06T01:35:04.768Z,97852.06
2019-04-06T01:37:34.051Z,97857.76
2019-04-06T01:40:03.244Z,97857.61
2019-04-06T01:42:32.300Z,97859.24
2019-04-06T01:45:01.374Z,97851.25
2019-04-06T01:47:30.554Z,97845.34
2019-04-06T01:49:59.602Z,97845.48
2019-04-06T01:52:28.654Z,97842.75
2019-04-06T01:54:59.119Z,97845.72
2019-04-06T01:57:28.455Z,97837.91
2019-04-06T01:59:57.645Z,97796.08
2019-04-06T02:02:32.458Z,97843.18
2019-04-06T02:05:01.534Z,97847.50
2019-04-06T02:07:32.104Z,97846.17
2019-04-06T02:10:01.268Z,97847.17
2019-04-06T02:12:30.420Z,97846.51
2019-04-06T02:14:59.520Z,97846.34
2019-04-06T02:17:28.630Z,97847.46
2019-04-06T02:19:57.672Z,97844.36
2019-04-06T02:22:28.232Z,97842.28
2019-04-06T02:24:57.278Z,97851.50
2019-04-06T02:27:28.590Z,97842.47
2019-04-06T02:30:16.612Z,97840.67
2019-04-06T02:33:03.434Z,97839.48
2019-04-06T02:35:39.007Z,97841.27
2019-04-06T02:38:26.995Z,97843.22
2019-04-06T02:41:03.347Z,97842.24
2019-04-06T02:43:34.114Z,97839.87
2019-04-06T02:46:03.148Z,97840.33
2019-04-06T02:48:32.265Z,97843.92
2019-04-06T02:51:03.571Z,97840.73
2019-04-06T02:53:32.586Z,97833.60
2019-04-06T02:56:04.453Z,97837.68
2019-04-06T02:58:33.637Z,97750.60
2019-04-06T03:01:03.018Z,97834.72
2019-04-06T03:03:32.208Z,97836.63
2019-04-06T03:06:20.406Z,97836.41
2019-04-06T03:08:49.600Z,97839.85
2019-04-06T03:11:18.671Z,97829.44
2019-04-06T03:13:47.737Z,97830.06
2019-04-06T03:16:18.184Z,97832.78
2019-04-06T03:18:48.346Z,97836.57
2019-04-06T03:21:17.574Z,97837.55
2019-04-06T03:23:51.241Z,97837.83
2019-04-06T03:26:19.030Z,97829.41
2019-04-06T03:28:48.099Z,97829.37
2019-04-06T03:31:22.820Z,97833.48
2019-04-06T03:33:50.133Z,97832.00
2019-04-06T03:36:20.255Z,97834.94
2019-04-06T03:38:50.512Z,97835.31
2019-04-06T03:41:19.695Z,97837.51
2019-04-06T03:43:48.815Z,97836.00
2019-04-06T03:46:17.849Z,97831.52
2019-04-06T03:48:46.875Z,97834.77
2019-04-06T03:51:15.905Z,97833.48
2019-04-06T03:53:45.003Z,97829.47
2019-04-06T03:56:14.051Z,97823.53
2019-04-06T03:58:43.073Z,97822.04
2019-04-06T04:01:12.180Z,97827.78
2019-04-06T04:03:41.287Z,97825.28
2019-04-06T04:06:10.516Z,97828.33
2019-04-06T04:08:39.627Z,97830.62
2019-04-06T04:11:10.012Z,97832.64
2019-04-06T04:13:44.413Z,97834.59
2019-04-06T04:16:13.464Z,97828.83
2019-04-06T04:18:42.853Z,97833.62
2019-04-06T04:21:11.906Z,97834.02
2019-04-06T04:23:40.959Z,97832.19
2019-04-06T04:26:10.198Z,97829.39
2019-04-06T04:28:39.350Z,97830.57
2019-04-06T04:31:10.695Z,97833.89
2019-04-06T04:33:39.837Z,97831.39
2019-04-06T04:36:11.247Z,97839.98
2019-04-06T04:38:40.450Z,97839.78
2019-04-06T04:41:09.497Z,97835.08
2019-04-06T04:43:38.539Z,97836.59
2019-04-06T04:46:07.537Z,97838.18
2019-04-06T04:48:36.626Z,97837.70
2019-04-06T04:51:05.642Z,97840.95
2019-04-06T04:53:34.705Z,97848.30
2019-04-06T04:56:03.820Z,97844.33
2019-04-06T04:58:34.255Z,97845.01
2019-04-06T05:01:03.406Z,97846.70
2019-04-06T05:03:32.466Z,97848.00
2019-04-06T05:06:01.505Z,97852.97
2019-04-06T05:08:30.506Z,97857.69
2019-04-06T05:11:00.714Z,97865.84
2019-04-06T05:13:29.898Z,97859.91
2019-04-06T05:16:10.704Z,97863.20
2019-04-06T05:18:41.645Z,97861.09
2019-04-06T05:21:10.698Z,97865.41
2019-04-06T05:23:39.762Z,97865.80
2019-04-06T05:26:08.828Z,97862.08
2019-04-06T05:28:40.099Z,97871.47
2019-04-06T05:31:11.443Z,97871.33
2019-04-06T05:33:40.473Z,97868.98
2019-04-06T05:36:10.877Z,97870.09
2019-04-06T05:38:39.985Z,97874.73
2019-04-06T05:41:09.058Z,97876.34
2019-04-06T05:43:38.183Z,97885.80
2019-04-06T05:46:07.328Z,97881.53
2019-04-06T05:48:37.018Z,97890.13
2019-04-06T05:51:06.394Z,97898.34
2019-04-06T05:53:35.501Z,97898.81
2019-04-06T05:56:04.617Z,97902.63
2019-04-06T05:58:33.657Z,97908.24
2019-04-06T06:01:04.099Z,97899.59
2019-04-06T06:03:33.472Z,97905.06
2019-04-06T06:06:02.542Z,97905.70
2019-04-06T06:08:31.624Z,97902.96
2019-04-06T06:11:00.752Z,97905.47
2019-04-06T06:13:29.806Z,97901.91
2019-04-06T06:15:58.897Z,97903.16
2019-04-06T06:18:27.942Z,97911.30
2019-04-06T06:20:57.052Z,97899.54
2019-04-06T06:23:26.055Z,97901.03
2019-04-06T06:25:55.242Z,97896.36
2019-04-06T06:28:24.374Z,97901.23
2019-04-06T06:30:54.029Z,97900.89
2019-04-06T06:33:23.400Z,97899.36
2019-04-06T06:35:52.455Z,97901.25
2019-04-06T06:38:21.594Z,97900.77
2019-04-06T06:40:50.608Z,97907.95
2019-04-06T06:43:19.748Z,97902.11
2019-04-06T06:45:49.001Z,97901.69
2019-04-06T06:48:18.493Z,97902.28
2019-04-06T06:50:48.833Z,97900.75
2019-04-06T06:53:18.017Z,97905.31
2019-04-06T06:55:49.047Z,97910.48
2019-04-06T06:58:25.071Z,97906.45
2019-04-06T07:00:51.152Z,97911.20
2019-04-06T07:03:20.402Z,97909.83
2019-04-06T07:05:51.292Z,97901.03
2019-04-06T07:08:20.620Z,97904.58
2019-04-06T07:10:50.435Z,97903.72
2019-04-06T07:13:19.986Z,97908.84
2019-04-06T07:15:51.848Z,97908.78
2019-04-06T07:18:21.284Z,97916.12
2019-04-06T07:20:50.870Z,97910.62
2019-04-06T07:23:20.179Z,97913.55
2019-04-06T07:25:57.365Z,97916.09
2019-04-06T07:28:23.141Z,97907.70
2019-04-06T07:30:52.580Z,97906.81
2019-04-06T07:33:21.652Z,97901.45
2019-04-06T07:35:51.989Z,97902.00
2019-04-06T07:38:21.145Z,97901.51
2019-04-06T07:40:52.439Z,97896.84
2019-04-06T07:43:21.653Z,97902.33
2019-04-06T07:45:51.491Z,97891.61
2019-04-06T07:48:20.567Z,97892.39
2019-04-06T07:50:50.860Z,97883.62
2019-04-06T07:53:20.001Z,97882.39
2019-04-06T07:55:49.907Z,97873.56
2019-04-06T07:58:19.328Z,97871.02
2019-04-06T08:00:48.491Z,97877.87
2019-04-06T08:03:17.637Z,97870.52
2019-04-06T08:05:47.055Z,97872.72
2019-04-06T08:08:16.268Z,97868.72
2019-04-06T08:10:45.399Z,97863.89
2019-04-06T08:13:16.245Z,97865.36
2019-04-06T08:15:45.414Z,97873.92
2019-04-06T08:18:14.650Z,97868.08
2019-04-06T08:20:43.826Z,97870.76
2019-04-06T08:23:13.017Z,97859.84
2019-04-06T08:25:44.045Z,97864.97
2019-04-06T08:28:13.227Z,97854.23
2019-04-06T08:30:46.082Z,97856.92
2019-04-06T08:33:14.183Z,97855.66
2019-04-06T08:35:44.692Z,97856.67
2019-04-06T08:38:13.812Z,97849.78
2019-04-06T08:40:42.861Z,97855.30
2019-04-06T08:43:12.108Z,97857.59
2019-04-06T08:45:41.149Z,97852.30
2019-04-06T08:48:10.247Z,97854.44
2019-04-06T08:50:39.299Z,97863.69
2019-04-06T08:53:08.554Z,97863.38
2019-04-06T08:55:38.440Z,97871.28
2019-04-06T08:58:07.901Z,97859.94
2019-04-06T09:00:37.008Z,97865.68
2019-04-06T09:03:06.182Z,97865.85
2019-04-06T09:05:35.280Z,97850.21
2019-04-06T09:08:04.352Z,97857.05
2019-04-06T09:10:33.496Z,97859.61
2019-04-06T09:13:02.664Z,97848.27
2019-04-06T09:15:32.160Z,97854.63
2019-04-06T09:18:01.262Z,97860.81
2019-04-06T09:20:30.408Z,97849.63
2019-04-06T09:22:59.683Z,97855.69
2019-04-06T09:25:28.809Z,97849.48
2019-04-06T09:27:58.009Z,97851.12
2019-04-06T09:30:32.163Z,97846.56
2019-04-06T09:33:01.973Z,97839.57
2019-04-06T09:35:33.614Z,97835.97
2019-04-06T09:38:02.769Z,97820.31
2019-04-06T09:40:34.122Z,97831.64
2019-04-06T09:43:03.425Z,97819.20
2019-04-06T09:45:45.088Z,97832.80
2019-04-06T09:48:33.681Z,97832.45
2019-04-06T09:51:18.565Z,97827.51
2019-04-06T09:54:07.625Z,97823.72
2019-04-06T09:56:51.793Z,97821.27
2019-04-06T09:59:39.814Z,97816.20
2019-04-06T10:02:23.988Z,97816.91
2019-04-06T10:05:12.054Z,97803.98
2019-04-06T10:08:12.254Z,97797.52
2019-04-06T10:11:10.816Z,97794.47
2019-04-06T10:13:58.900Z,97794.95
2019-04-06T10:16:55.863Z,97795.61
2019-04-06T10:19:49.851Z,97799.05
2019-04-06T10:22:25.259Z,97798.02
2019-04-06T10:25:17.560Z,97795.64
2019-04-06T10:28:08.583Z,97791.29
2019-04-06T10:30:59.450Z,97791.95
2019-04-06T10:33:37.130Z,97795.73
2019-04-06T10:36:32.046Z,97793.30
2019-04-06T10:39:15.944Z,97794.97
2019-04-06T10:42:10.367Z,97786.02
2019-04-06T10:45:01.710Z,97781.53
2019-04-06T10:47:57.410Z,97780.53
2019-04-06T10:50:51.602Z,97776.84
2019-04-06T10:53:54.079Z,97770.87
2019-04-06T10:56:44.778Z,97769.58
2019-04-06T10:59:41.656Z,97777.30
2019-04-06T11:02:28.840Z,97764.66
2019-04-06T11:05:26.772Z,97771.48
2019-04-06T11:08:27.139Z,97780.73
2019-04-06T11:11:17.939Z,97774.44
2019-04-06T11:14:13.093Z,97777.80
2019-04-06T11:16:52.981Z,97770.12
2019-04-06T11:19:44.692Z,97769.41
2019-04-06T11:22:45.058Z,97768.45
2019-04-06T11:25:45.139Z,97772.07
2019-04-06T11:28:21.266Z,97761.07
2019-04-06T11:31:08.286Z,97756.58
2019-04-06T11:33:59.429Z,97762.66
2019-04-06T11:36:52.792Z,97760.66
2019-04-06T11:39:43.800Z,97756.86
2019-04-06T11:42:29.373Z,97749.42
2019-04-06T11:45:23.672Z,97751.95
2019-04-06T11:48:28.427Z,97764.05
2019-04-06T11:51:38.645Z,97753.34
2019-04-06T11:54:27.272Z,97740.83
2019-04-06T11:57:15.383Z,97734.69
2019-04-06T12:00:26.839Z,97745.63
2019-04-06T12:03:12.063Z,97742.98
2019-04-06T12:05:58.863Z,97738.29
2019-04-06T12:08:52.958Z,97735.77
2019-04-06T12:11:29.552Z,97733.97
2019-04-06T12:14:23.610Z,97724.90
2019-04-06T12:17:05.854Z,97724.88
2019-04-06T12:20:01.272Z,97721.91
2019-04-06T12:22:45.736Z,97723.71
2019-04-06T12:25:40.830Z,97730.64
2019-04-06T12:28:40.962Z,97733.41
2019-04-06T12:31:22.340Z,97743.30
2019-04-06T12:34:02.699Z,97740.08
2019-04-06T12:36:43.869Z,97722.34
2019-04-06T12:39:50.960Z,97726.70
2019-04-06T12:42:31.544Z,97725.06
2019-04-06T12:45:32.043Z,97719.05
2019-04-06T12:48:35.141Z,97712.40
2019-04-06T12:51:32.201Z,97714.91
2019-04-06T12:54:23.416Z,97720.92
2019-04-06T12:57:17.782Z,97717.77
2019-04-06T13:00:12.200Z,97714.44
2019-04-06T13:03:05.670Z,97710.77
2019-04-06T13:05:42.188Z,97714.20
2019-04-06T13:08:29.625Z,97708.97
2019-04-06T13:11:20.446Z,97715.20
2019-04-06T13:14:11.513Z,97718.95
2019-04-06T13:16:59.692Z,97714.66
2019-04-06T13:19:50.673Z,97702.20
2019-04-06T13:22:29.057Z,97706.06
2019-04-06T13:25:17.652Z,97699.14
2019-04-06T13:28:04.451Z,97706.66
2019-04-06T13:31:01.764Z,97706.66
2019-04-06T13:33:51.135Z,97702.05
2019-04-06T13:36:32.839Z,97703.56
2019-04-06T13:39:30.507Z,97700.30
2019-04-06T13:42:08.307Z,97708.32
2019-04-06T13:44:56.338Z,97712.23
2019-04-06T13:47:56.647Z,97713.63
2019-04-06T13:50:34.236Z,97709.16
2019-04-06T13:53:48.931Z,97707.57
2019-04-06T13:56:42.894Z,97710.38
2019-04-06T13:59:34.253Z,97712.23
2019-04-06T14:02:32.711Z,97714.91
2019-04-06T14:05:20.720Z,97703.42
2019-04-06T14:07:59.257Z,97713.41
2019-04-06T14:10:53.346Z,97711.11
2019-04-06T14:13:35.291Z,97705.47
2019-04-06T14:16:35.200Z,97713.14
2019-04-06T14:19:21.967Z,97708.55
2019-04-06T14:21:57.010Z,97715.08
2019-04-06T14:24:47.778Z,97715.70
2019-04-06T14:27:24.685Z,97713.98
2019-04-06T14:30:11.667Z,97707.47
2019-04-06T14:32:56.915Z,97714.54
2019-04-06T14:35:44.743Z,97709.12
2019-04-06T14:38:32.772Z,97709.30
2019-04-06T14:41:19.911Z,97711.80
2019-04-06T14:44:05.811Z,97716.98
2019-04-06T14:46:58.344Z,97717.89
2019-04-06T14:50:02.693Z,97719.16
2019-04-06T14:52:43.150Z,97721.02
2019-04-06T14:55:22.769Z,97721.66
2019-04-06T14:58:18.303Z,97728.36
2019-04-06T15:01:41.521Z,97724.51
2019-04-06T15:04:26.615Z,97728.11
2019-04-06T15:07:23.825Z,97718.85
2019-04-06T15:10:11.838Z,97722.13
2019-04-06T15:13:02.905Z,97723.27
2019-04-06T15:15:50.039Z,97719.57
2019-04-06T15:18:41.441Z,97718.69
2019-04-06T15:21:44.898Z,97708.34
2019-04-06T15:24:38.942Z,97715.55
2019-04-06T15:27:29.400Z,97711.86
2019-04-06T15:30:21.013Z,97719.04
2019-04-06T15:33:09.011Z,97706.69
2019-04-06T15:36:06.285Z,97696.80
2019-04-06T15:38:59.526Z,97702.44
2019-04-06T15:41:57.468Z,97703.11
2019-04-06T15:44:48.667Z,97699.56
2019-04-06T15:47:37.214Z,97690.63
2019-04-06T15:50:32.650Z,97691.32
2019-04-06T15:53:20.726Z,97692.59
2019-04-06T15:55:58.493Z,97682.99
2019-04-06T15:58:49.685Z,97680.23
2019-04-06T16:01:31.830Z,97686.56
2019-04-06T16:04:27.951Z,97678.16
2019-04-06T16:07:33.347Z,97672.34
2019-04-06T16:10:19.882Z,97674.14
2019-04-06T16:13:06.406Z,97664.26
2019-04-06T16:15:57.326Z,97665.69
2019-04-06T16:18:46.234Z,97671.34
2019-04-06T16:21:32.868Z,97666.92
2019-04-06T16:24:24.730Z,97673.47
2019-04-06T16:27:01.567Z,97674.53
2019-04-06T16:29:54.404Z,97663.00
2019-04-06T16:32:47.121Z,97666.02
2019-04-06T16:35:25.714Z,97665.78
2019-04-06T16:38:17.129Z,97668.28
2019-04-06T16:41:10.647Z,97665.67
2019-04-06T16:44:17.854Z,97675.03
2019-04-06T16:47:15.792Z,97675.95
2019-04-06T16:49:56.765Z,97674.61
2019-04-06T16:52:48.354Z,97681.73
2019-04-06T16:55:36.483Z,97682.92
2019-04-06T16:58:36.787Z,97677.48
2019-04-06T17:01:25.338Z,97679.33
2019-04-06T17:04:13.590Z,97681.81
2019-04-06T17:07:06.511Z,97683.93
2019-04-06T17:09:53.824Z,97679.50
2019-04-06T17:12:48.611Z,97679.56
2019-04-06T17:15:27.674Z,97674.04
2019-04-06T17:18:18.841Z,97683.97
2019-04-06T17:20:56.620Z,97674.20
2019-04-06T17:23:36.841Z,97683.57
2019-04-06T17:26:26.185Z,97685.79
2019-04-06T17:29:23.370Z,97683.98
2019-04-06T17:32:18.253Z,97684.55
2019-04-06T17:35:08.231Z,97682.31
2019-04-06T17:38:02.961Z,97685.81
2019-04-06T17:40:46.032Z,97687.80
2019-04-06T17:43:32.930Z,97680.84
2019-04-06T17:46:21.132Z,97686.19
2019-04-06T17:49:12.404Z,97683.11
2019-04-06T17:52:10.111Z,97683.46
2019-04-06T17:54:58.062Z,97679.47
2019-04-06T17:57:44.965Z,97680.92
2019-04-06T18:00:32.669Z,97680.36
2019-04-06T18:03:30.662Z,97682.05
2019-04-06T18:06:23.115Z,97680.24
2019-04-06T18:09:25.805Z,97684.75
2019-04-06T18:12:16.700Z,97683.97
2019-04-06T18:14:47.722Z,97686.87
2019-04-06T18:17:17.620Z,97692.20
2019-04-06T18:19:47.252Z,97691.62
2019-04-06T18:22:16.315Z,97698.45
2019-04-06T18:24:47.834Z,97689.70
2019-04-06T18:27:17.388Z,97696.80
2019-04-06T18:29:46.604Z,97693.08
2019-04-06T18:32:35.074Z,97695.96
2019-04-06T18:35:06.426Z,97698.61
2019-04-06T18:37:43.810Z,97696.08
2019-04-06T18:40:23.675Z,97699.73
2019-04-06T18:42:53.077Z,97701.86
2019-04-06T18:45:23.521Z,97707.59
2019-04-06T18:47:53.083Z,97710.32
2019-04-06T18:50:33.278Z,97715.34
2019-04-06T18:52:53.140Z,97723.38
2019-04-06T18:55:22.253Z,97715.31
2019-04-06T18:57:53.345Z,97719.09
2019-04-06T19:00:22.627Z,97724.83
2019-04-06T19:02:53.947Z,97723.03
2019-04-06T19:05:26.894Z,97728.88
2019-04-06T19:07:56.415Z,97731.13
2019-04-06T19:10:25.693Z,97735.00
2019-04-06T19:12:56.657Z,97737.47
2019-04-06T19:15:27.258Z,97747.99
2019-04-06T19:17:56.332Z,97742.59
2019-04-06T19:20:25.667Z,97756.92
2019-04-06T19:22:54.773Z,97756.37
2019-04-06T19:25:23.842Z,97755.77
2019-04-06T19:27:53.654Z,97757.78
2019-04-06T19:30:23.778Z,97761.39
2019-04-06T19:32:54.008Z,97756.79
2019-04-06T19:35:23.617Z,97756.31
2019-04-06T19:37:53.027Z,97759.83
2019-04-06T19:40:22.623Z,97759.20
2019-04-06T19:42:52.109Z,97758.88
2019-04-06T19:45:21.328Z,97766.89
2019-04-06T19:47:50.518Z,97763.23
2019-04-06T19:50:20.254Z,97757.92
2019-04-06T19:52:49.577Z,97757.81
2019-04-06T19:55:19.124Z,97759.09
2019-04-06T19:57:48.203Z,97764.71
2019-04-06T20:00:17.796Z,97762.38
2019-04-06T20:02:47.327Z,97762.91
2019-04-06T20:05:16.439Z,97758.98
2019-04-06T20:07:45.593Z,97767.64
2019-04-06T20:10:15.157Z,97763.17
2019-04-06T20:12:44.382Z,97767.28
2019-04-06T20:15:13.436Z,97762.45
2019-04-06T20:17:42.723Z,97758.47
2019-04-06T20:20:12.074Z,97756.02
2019-04-06T20:22:41.447Z,97757.07
2019-04-06T20:25:10.797Z,97754.45
2019-04-06T20:27:39.934Z,97762.24
2019-04-06T20:30:09.531Z,97763.08
2019-04-06T20:32:39.107Z,97759.11
2019-04-06T20:35:09.314Z,97757.27
2019-04-06T20:37:38.754Z,97753.31
2019-04-06T20:40:08.816Z,97687.57
2019-04-06T20:42:37.990Z,97750.01
2019-04-06T20:45:08.278Z,97740.23
2019-04-06T20:47:37.504Z,97742.54
2019-04-06T20:50:07.323Z,97739.23
2019-04-06T20:52:37.047Z,97741.58
2019-04-06T20:55:06.345Z,97739.73
2019-04-06T20:57:38.380Z,97733.92
2019-04-06T21:00:07.626Z,97736.27
2019-04-06T21:02:37.646Z,97742.23
2019-04-06T21:05:07.169Z,97734.44
2019-04-06T21:07:38.052Z,97735.25
2019-04-06T21:10:07.313Z,97734.42
2019-04-06T21:12:36.946Z,97737.39
2019-04-06T21:15:17.641Z,97733.23
2019-04-06T21:17:37.896Z,97734.93
2019-04-06T21:20:08.114Z,97733.26
2019-04-06T21:22:37.697Z,97728.77
2019-04-06T21:25:07.151Z,97727.59
2019-04-06T21:27:36.912Z,97722.45
2019-04-06T21:30:07.066Z,97722.16
2019-04-06T21:32:36.171Z,97721.32
2019-04-06T21:35:05.756Z,97720.67
2019-04-06T21:37:34.893Z,97717.37
2019-04-06T21:40:04.241Z,97716.71
2019-04-06T21:42:35.667Z,97716.69
2019-04-06T21:45:05.151Z,97712.23
2019-04-06T21:47:35.818Z,97714.20
2019-04-06T21:50:05.806Z,97708.22
2019-04-06T21:52:35.360Z,97703.62
2019-04-06T21:55:04.943Z,97711.23
2019-04-06T21:57:34.082Z,97707.41
2019-04-06T22:00:04.413Z,97702.46
2019-04-06T22:02:34.500Z,97700.95
2019-04-06T22:05:03.659Z,97696.29
2019-04-06T22:07:33.631Z,97695.97
2019-04-06T22:10:06.448Z,97695.64
2019-04-06T22:12:43.455Z,97692.15
2019-04-06T22:15:15.753Z,97686.72
2019-04-06T22:17:45.348Z,97682.90
2019-04-06T22:20:17.579Z,97683.09
2019-04-06T22:22:46.998Z,97685.90
2019-04-06T22:25:21.032Z,97683.44
2019-04-06T22:27:52.041Z,97682.26
2019-04-06T22:30:21.182Z,97685.58
2019-04-06T22:32:50.328Z,97682.27
2019-04-06T22:35:19.479Z,97676.66
2019-04-06T22:37:52.301Z,97682.44
2019-04-06T22:40:24.680Z,97678.31
2019-04-06T22:42:53.897Z,97681.61
2019-04-06T22:45:24.199Z,97674.34
2019-04-06T22:47:55.911Z,97673.82
2019-04-06T22:50:25.708Z,97677.97
2019-04-06T22:52:55.309Z,97678.13
2019-04-06T22:55:27.029Z,97675.98
2019-04-06T22:57:57.181Z,97667.05
2019-04-06T23:00:30.538Z,97664.40
2019-04-06T23:03:17.214Z,97669.36
2019-04-06T23:05:49.270Z,97668.70
2019-04-06T23:08:18.393Z,97670.17
2019-04-06T23:10:50.452Z,97668.52
2019-04-06T23:13:20.267Z,97670.02
2019-04-06T23:15:49.724Z,97675.66
2019-04-06T23:18:18.892Z,97668.52
2019-04-06T23:20:48.346Z,97671.67
2019-04-06T23:23:17.653Z,97670.16
2019-04-06T23:25:47.369Z,97675.63
2019-04-06T23:28:16.440Z,97677.77
2019-04-06T23:30:45.856Z,97682.90
2019-04-06T23:33:16.444Z,97678.73
2019-04-06T23:35:46.093Z,97676.77
2019-04-06T23:38:15.157Z,97684.98
2019-04-06T23:40:44.329Z,97678.66
2019-04-06T23:43:13.446Z,97677.66
2019-04-06T23:45:42.670Z,97674.53
2019-04-06T23:48:12.090Z,97678.64
2019-04-06T23:50:41.150Z,97679.47
2019-04-06T23:53:10.211Z,97679.27
2019-04-06T23:55:39.404Z,97679.28
2019-04-06T23:58:08.462Z,97680.09
